Back to Top

Language: 

My Weather Underground Personal Weather Station Historical Data with Graphs...

Delerius Weather Station Historical Data
Daily Summary for June 15, 2017 Units:  Metric    English   Both
« Previous Day
Next Day »
Daily Weekly Monthly Yearly Custom
  High: Low: Average:
Temperature: 21.2 °C 13.9 °C 17.7 °C
Dew Point: 14.5 °C 8.9 °C 11.3 °C
Humidity: 85 % 50 % 67 %
Wind Speed: 27.4 km/h 0 km/h 12.1 km/h
Wind Gust: 46.7 km/h - -
Wind:- - WSW
Pressure: 1015.1 hPa 1009.4 hPa -
Precipitation: 0 mm    
Historical Graphs
 
 
Tabular Data for June 15, 2017
Time Temperature Dew Point Pressure Wind Wind Speed Wind Gust Humidity Rainfall Rate (Hourly) solar Conditions
00:00 19.3 °C 14.1 °C 1011.1 hPa SE 9.7 km/h 16.1 km/h 72 % 0 mm 0 W/m2
00:05 19.3 °C 14.1 °C 1011.4 hPa SE 9.7 km/h 16.1 km/h 72 % 0 mm 0 W/m2
00:10 19.2 °C 14.2 °C 1011.4 hPa SSE 9.7 km/h 16.1 km/h 73 % 0 mm 0 W/m2
00:15 19.2 °C 14.2 °C 1011.1 hPa SSE 9.7 km/h 14.5 km/h 73 % 0 mm 0 W/m2
00:20 19.1 °C 14.2 °C 1011.4 hPa SSE 8 km/h 14.5 km/h 73 % 0 mm 0 W/m2
00:25 19 °C 14.1 °C 1011.4 hPa SSE 8 km/h 14.5 km/h 73 % 0 mm 0 W/m2
00:30 19 °C 14.3 °C 1011.7 hPa SSE 8 km/h 11.3 km/h 74 % 0 mm 0 W/m2
00:35 18.9 °C 14.2 °C 1011.4 hPa South 6.4 km/h 12.9 km/h 74 % 0 mm 0 W/m2
00:40 18.9 °C 14.2 °C 1011.4 hPa South 3.2 km/h 12.9 km/h 74 % 0 mm 0 W/m2
00:45 18.9 °C 14.2 °C 1011.4 hPa South 1.6 km/h 9.7 km/h 74 % 0 mm 0 W/m2
00:50 18.9 °C 14.4 °C 1011.7 hPa Calm   8 km/h 75 % 0 mm 0 W/m2
00:55 18.9 °C 14.4 °C 1011.4 hPa Calm   4.8 km/h 75 % 0 mm 0 W/m2
01:01 18.9 °C 14.4 °C 1011.4 hPa Calm   3.2 km/h 75 % 0 mm 0 W/m2
01:06 18.9 °C 14.4 °C 1011.4 hPa South 1.6 km/h 6.4 km/h 75 % 0 mm 0 W/m2
01:11 18.8 °C 14.5 °C 1011.4 hPa South 1.6 km/h 6.4 km/h 76 % 0 mm 0 W/m2
01:12 18.8 °C 14.5 °C 1011.4 hPa South 1.6 km/h 6.4 km/h 76 % 0 mm 0 W/m2
01:17 18.8 °C 14.5 °C 1011.1 hPa Calm   4.8 km/h 76 % 0 mm 0 W/m2
01:22 18.7 °C 14.4 °C 1011.1 hPa Calm   4.8 km/h 76 % 0 mm 0 W/m2
01:27 18.7 °C 14.4 °C 1011.1 hPa Calm   4.8 km/h 76 % 0 mm 0 W/m2
01:32 18.6 °C 14.3 °C 1011.1 hPa Calm   8 km/h 76 % 0 mm 0 W/m2
01:37 18.6 °C 14.3 °C 1011.1 hPa South 1.6 km/h 8 km/h 76 % 0 mm 0 W/m2
01:42 18.4 °C 14.3 °C 1011.1 hPa Calm   4.8 km/h 77 % 0 mm 0 W/m2
01:47 18.3 °C 14.2 °C 1011.1 hPa South 1.6 km/h 6.4 km/h 77 % 0 mm 0 W/m2
01:49 18.3 °C 14.2 °C 1011.1 hPa South 1.6 km/h 6.4 km/h 77 % 0 mm 0 W/m2
01:54 18.1 °C 14.2 °C 1011.1 hPa Calm   3.2 km/h 78 % 0 mm 0 W/m2
02:00 18 °C 14.1 °C 1011.1 hPa Calm   4.8 km/h 78 % 0 mm 0 W/m2
02:05 17.8 °C 14.1 °C 1011.1 hPa South 1.6 km/h 4.8 km/h 79 % 0 mm 0 W/m2
02:10 17.7 °C 14.2 °C 1011.1 hPa Calm   3.2 km/h 80 % 0 mm 0 W/m2
02:15 17.6 °C 14.1 °C 1011.1 hPa SSW 1.6 km/h 8 km/h 80 % 0 mm 0 W/m2
02:20 17.4 °C 14.1 °C 1011.1 hPa SSW 1.6 km/h 8 km/h 81 % 0 mm 0 W/m2
02:25 17.2 °C 13.9 °C 1010.7 hPa Calm   4.8 km/h 81 % 0 mm 0 W/m2
02:30 17.1 °C 14 °C 1010.7 hPa Calm   1.6 km/h 82 % 0 mm 0 W/m2
02:35 16.9 °C 13.8 °C 1010.7 hPa Calm     82 % 0 mm 0 W/m2
02:40 16.8 °C 13.9 °C 1010.7 hPa Calm     83 % 0 mm 0 W/m2
02:45 16.7 °C 14 °C 1010.7 hPa Calm   3.2 km/h 84 % 0 mm 0 W/m2
02:50 16.6 °C 13.9 °C 1010.7 hPa Calm   3.2 km/h 84 % 0 mm 0 W/m2
02:55 16.6 °C 14.1 °C 1010.7 hPa SSW 1.6 km/h 6.4 km/h 85 % 0 mm 0 W/m2
03:00 16.6 °C 14.1 °C 1010.7 hPa SSW 1.6 km/h 6.4 km/h 85 % 0 mm 0 W/m2
03:05 16.6 °C 13.7 °C 1010.7 hPa SW 3.2 km/h 14.5 km/h 83 % 0 mm 0 W/m2
03:10 16.6 °C 13.5 °C 1010.4 hPa WSW 3.2 km/h 14.5 km/h 82 % 0 mm 0 W/m2
03:15 16.7 °C 13.6 °C 1010.4 hPa WSW 1.6 km/h 8 km/h 82 % 0 mm 0 W/m2
03:20 16.7 °C 13.4 °C 1010.4 hPa Calm   6.4 km/h 81 % 0 mm 0 W/m2
03:25 16.6 °C 13.3 °C 1010.4 hPa Calm     81 % 0 mm 0 W/m2
03:30 16.4 °C 13.1 °C 1010.4 hPa Calm     81 % 0 mm 0 W/m2
03:35 16.3 °C 13.2 °C 1010.4 hPa Calm     82 % 0 mm 0 W/m2
03:40 16.1 °C 13 °C 1010.4 hPa Calm     82 % 0 mm 0 W/m2
03:45 16 °C 13.1 °C 1010.4 hPa Calm   1.6 km/h 83 % 0 mm 0 W/m2
03:50 15.8 °C 12.9 °C 1010.4 hPa Calm   6.4 km/h 83 % 0 mm 0 W/m2
03:55 15.6 °C 12.9 °C 1010.4 hPa Calm   6.4 km/h 84 % 0 mm 0 W/m2
04:00 15.4 °C 12.7 °C 1010.4 hPa WSW 1.6 km/h 9.7 km/h 84 % 0 mm 0 W/m2
04:05 15.3 °C 12.8 °C 1010.4 hPa WSW 1.6 km/h 9.7 km/h 85 % 0 mm 0 W/m2
04:10 15.3 °C 12.8 °C 1010 hPa Calm   3.2 km/h 85 % 0 mm 0 W/m2
04:15 15.2 °C 12.7 °C 1010 hPa Calm   8 km/h 85 % 0 mm 0 W/m2
04:20 15.1 °C 12.6 °C 1010 hPa WSW 1.6 km/h 8 km/h 85 % 0 mm 0 W/m2
04:26 15 °C 12.5 °C 1010 hPa WSW 1.6 km/h 6.4 km/h 85 % 0 mm 0 W/m2
04:31 14.9 °C 12.4 °C 1010 hPa Calm     85 % 0 mm 0 W/m2
04:36 14.8 °C 12.3 °C 1010 hPa Calm     85 % 0 mm 0 W/m2
04:41 14.6 °C 12.1 °C 1010 hPa Calm     85 % 0 mm 0 W/m2
04:46 14.4 °C 11.9 °C 1010 hPa Calm     85 % 0 mm 5 W/m2
04:51 14.3 °C 11.8 °C 1010 hPa Calm     85 % 0 mm 5 W/m2
04:56 14.1 °C 11.6 °C 1010 hPa Calm     85 % 0 mm 7 W/m2
05:01 14 °C 11.3 °C 1009.7 hPa Calm   3.2 km/h 84 % 0 mm 11 W/m2
05:06 13.9 °C 11.1 °C 1009.7 hPa Calm   6.4 km/h 83 % 0 mm 12 W/m2
05:11 14 °C 11.2 °C 1010 hPa Calm   6.4 km/h 83 % 0 mm 16 W/m2
05:16 14 °C 11 °C 1009.7 hPa SSE 1.6 km/h 6.4 km/h 82 % 0 mm 18 W/m2
05:21 14.1 °C 10.9 °C 1009.7 hPa SSE 4.8 km/h 14.5 km/h 81 % 0 mm 18 W/m2
05:26 14.2 °C 10.8 °C 1009.7 hPa SE 6.4 km/h 14.5 km/h 80 % 0 mm 21 W/m2
05:31 14.3 °C 10.7 °C 1009.7 hPa SSE 6.4 km/h 11.3 km/h 79 % 0 mm 23 W/m2
05:36 14.4 °C 10.8 °C 1009.7 hPa South 4.8 km/h 9.7 km/h 79 % 0 mm 25 W/m2
05:41 14.4 °C 10.8 °C 1009.7 hPa SSE 4.8 km/h 11.3 km/h 79 % 0 mm 26 W/m2
05:46 14.4 °C 10.4 °C 1010 hPa SSE 3.2 km/h 11.3 km/h 77 % 0 mm 30 W/m2
05:51 14.5 °C 10.5 °C 1010 hPa SSE 1.6 km/h 8 km/h 77 % 0 mm 37 W/m2
05:56 14.6 °C 10.4 °C 1009.7 hPa Calm   6.4 km/h 76 % 0 mm 128 W/m2
06:01 14.7 °C 10.5 °C 1010 hPa South 1.6 km/h 6.4 km/h 76 % 0 mm 142 W/m2
06:06 15.1 °C 10.9 °C 1009.7 hPa South 1.6 km/h 4.8 km/h 76 % 0 mm 113 W/m2
06:11 15.5 °C 11.1 °C 1009.7 hPa South 1.6 km/h 4.8 km/h 75 % 0 mm 81 W/m2
06:16 15.7 °C 10.9 °C 1009.7 hPa SE 1.6 km/h 8 km/h 73 % 0 mm 65 W/m2
06:21 15.8 °C 10.8 °C 1009.7 hPa ESE 3.2 km/h 8 km/h 72 % 0 mm 72 W/m2
06:26 15.9 °C 10.8 °C 1009.7 hPa East 3.2 km/h 8 km/h 72 % 0 mm 54 W/m2
06:36 16.1 °C 10.6 °C 1009.7 hPa NNW 3.2 km/h 11.3 km/h 70 % 0 mm 81 W/m2
06:41 16.2 °C 10.5 °C 1009.7 hPa NW 4.8 km/h 11.3 km/h 69 % 0 mm 88 W/m2
06:46 16.4 °C 10.3 °C 1009.7 hPa NW 6.4 km/h 17.7 km/h 67 % 0 mm 84 W/m2
06:51 16.5 °C 10.1 °C 1009.7 hPa NW 6.4 km/h 17.7 km/h 66 % 0 mm 76 W/m2
06:56 16.6 °C 10.2 °C 1009.7 hPa NW 4.8 km/h 12.9 km/h 66 % 0 mm 113 W/m2
06:57 16.6 °C 10.2 °C 1009.7 hPa WNW 4.8 km/h 14.5 km/h 66 % 0 mm 120 W/m2
07:02 16.6 °C 10 °C 1009.7 hPa WSW 4.8 km/h 14.5 km/h 65 % 0 mm 128 W/m2
07:07 16.7 °C 9.6 °C 1009.7 hPa SW 3.2 km/h 11.3 km/h 63 % 0 mm 116 W/m2
07:12 16.8 °C 9.7 °C 1009.7 hPa SW 3.2 km/h 12.9 km/h 63 % 0 mm 118 W/m2
07:17 16.8 °C 9.7 °C 1009.7 hPa SSW 3.2 km/h 12.9 km/h 63 % 0 mm 135 W/m2
07:22 16.8 °C 10.2 °C 1009.4 hPa SSW 1.6 km/h 9.7 km/h 65 % 0 mm 134 W/m2
07:27 16.9 °C 10.3 °C 1009.4 hPa Calm   3.2 km/h 65 % 0 mm 139 W/m2
07:32 16.9 °C 10.1 °C 1009.4 hPa Calm   3.2 km/h 64 % 0 mm 111 W/m2
07:37 17 °C 10.4 °C 1009.7 hPa Calm   3.2 km/h 65 % 0 mm 132 W/m2
07:42 17.1 °C 10 °C 1009.7 hPa Calm   1.6 km/h 63 % 0 mm 302 W/m2
07:47 17.3 °C 9.4 °C 1009.7 hPa West 1.6 km/h 14.5 km/h 60 % 0 mm 185 W/m2
07:52 17.3 °C 9.4 °C 1009.7 hPa WSW 4.8 km/h 14.5 km/h 60 % 0 mm 204 W/m2
07:57 17.4 °C 9.1 °C 1009.7 hPa WSW 8 km/h 17.7 km/h 58 % 0 mm 265 W/m2
08:02 17.5 °C 8.9 °C 1009.7 hPa WSW 9.7 km/h 20.9 km/h 57 % 0 mm 466 W/m2
08:07 17.8 °C 9.7 °C 1009.7 hPa WSW 8 km/h 20.9 km/h 59 % 0 mm 475 W/m2
08:12 18.1 °C 9.9 °C 1009.7 hPa WSW 4.8 km/h 12.9 km/h 59 % 0 mm 329 W/m2
08:17 18.3 °C 10.2 °C 1009.7 hPa WSW 8 km/h 16.1 km/h 59 % 0 mm 179 W/m2
08:22 18.4 °C 10.5 °C 1009.7 hPa WSW 8 km/h 16.1 km/h 60 % 0 mm 100 W/m2
08:27 18.3 °C 10.2 °C 1010 hPa West 6.4 km/h 14.5 km/h 59 % 0 mm 93 W/m2
08:32 18.2 °C 10.3 °C 1010 hPa West 6.4 km/h 14.5 km/h 60 % 0 mm 125 W/m2
08:37 18.1 °C 10.9 °C 1009.7 hPa West 8 km/h 16.1 km/h 63 % 0 mm 195 W/m2
08:42 18 °C 11.1 °C 1009.7 hPa WNW 9.7 km/h 19.3 km/h 64 % 0 mm 195 W/m2
08:47 17.9 °C 11 °C 1010 hPa WNW 9.7 km/h 19.3 km/h 64 % 0 mm 234 W/m2
08:52 17.9 °C 11.2 °C 1010 hPa WNW 9.7 km/h 17.7 km/h 65 % 0 mm 272 W/m2
08:57 17.9 °C 11.4 °C 1010 hPa WNW 8 km/h 17.7 km/h 66 % 0 mm 285 W/m2
09:03 18.1 °C 11.9 °C 1009.7 hPa West 6.4 km/h 14.5 km/h 67 % 0 mm 294 W/m2
09:07 18.1 °C 11.9 °C 1010 hPa West 8 km/h 17.7 km/h 67 % 0 mm 188 W/m2
09:12 18.1 °C 12.1 °C 1010 hPa West 11.3 km/h 22.5 km/h 68 % 0 mm 132 W/m2
09:17 17.9 °C 12.1 °C 1010 hPa West 11.3 km/h 22.5 km/h 69 % 0 mm 260 W/m2
09:22 18.2 °C 12.6 °C 1009.7 hPa WSW 12.9 km/h 29 km/h 70 % 0 mm 737 W/m2
09:27 18.6 °C 12.8 °C 1010 hPa WSW 16.1 km/h 33.8 km/h 69 % 0 mm 366 W/m2
09:32 18.6 °C 12.8 °C 1009.7 hPa WSW 17.7 km/h 33.8 km/h 69 % 0 mm 257 W/m2
09:37 18.3 °C 12.5 °C 1010 hPa West 19.3 km/h 37 km/h 69 % 0 mm 339 W/m2
09:42 18.6 °C 12.8 °C 1010 hPa West 17.7 km/h 37 km/h 69 % 0 mm 334 W/m2
09:46 18.7 °C 12.9 °C 1010 hPa West 16.1 km/h 32.2 km/h 69 % 0 mm 253 W/m2
09:51 18.5 °C 12.7 °C 1010 hPa West 19.3 km/h 35.4 km/h 69 % 0 mm 200 W/m2
09:56 18.2 °C 12.2 °C 1010 hPa WSW 20.9 km/h 35.4 km/h 68 % 0 mm 276 W/m2
10:01 18 °C 12.4 °C 1010 hPa WSW 19.3 km/h 35.4 km/h 70 % 0 mm 292 W/m2
10:06 18 °C 12.4 °C 1010 hPa WSW 17.7 km/h 33.8 km/h 70 % 0 mm 318 W/m2
10:11 18 °C 12.4 °C 1010 hPa WSW 19.3 km/h 40.2 km/h 70 % 0 mm 253 W/m2
10:16 17.8 °C 12.3 °C 1010 hPa WSW 17.7 km/h 40.2 km/h 70 % 0 mm 355 W/m2
10:21 17.9 °C 12.8 °C 1010 hPa WSW 17.7 km/h 37 km/h 72 % 0 mm 766 W/m2
10:26 18.2 °C 12.6 °C 1010 hPa WSW 19.3 km/h 35.4 km/h 70 % 0 mm 772 W/m2
10:31 18.6 °C 12.8 °C 1010 hPa WSW 20.9 km/h 40.2 km/h 69 % 0 mm 791 W/m2
10:36 18.9 °C 12.4 °C 1010 hPa WSW 24.1 km/h 40.2 km/h 66 % 0 mm 823 W/m2
10:41 19.1 °C 12.1 °C 1010 hPa WSW 25.7 km/h 40.2 km/h 64 % 0 mm 828 W/m2
10:46 19.3 °C 11.8 °C 1010 hPa WSW 25.7 km/h 40.2 km/h 62 % 0 mm 991 W/m2
10:51 19.6 °C 12.4 °C 1010.4 hPa WSW 24.1 km/h 40.2 km/h 63 % 0 mm 1044 W/m2
10:56 19.8 °C 12.1 °C 1010.4 hPa West 24.1 km/h 38.6 km/h 61 % 0 mm 1097 W/m2
11:01 20.1 °C 12.6 °C 1010 hPa West 22.5 km/h 37 km/h 62 % 0 mm 1192 W/m2
11:06 20.3 °C 12.6 °C 1010 hPa West 20.9 km/h 32.2 km/h 61 % 0 mm 417 W/m2
11:11 20.1 °C 12.3 °C 1010 hPa WSW 20.9 km/h 32.2 km/h 61 % 0 mm 397 W/m2
11:16 20.1 °C 12.6 °C 1010.4 hPa WSW 20.9 km/h 40.2 km/h 62 % 0 mm 1192 W/m2
11:21 20.1 °C 12.3 °C 1010.4 hPa West 22.5 km/h 40.2 km/h 61 % 0 mm 265 W/m2
11:26 19.6 °C 12.4 °C 1010.4 hPa WSW 22.5 km/h 40.2 km/h 63 % 0 mm 281 W/m2
11:31 19.2 °C 12.4 °C 1010.4 hPa West 19.3 km/h 40.2 km/h 65 % 0 mm 197 W/m2
11:36 18.9 °C 12.2 °C 1010.4 hPa West 17.7 km/h 29 km/h 65 % 0 mm 258 W/m2
11:41 18.9 °C 12.6 °C 1010.4 hPa WSW 16.1 km/h 29 km/h 67 % 0 mm 962 W/m2
11:46 19.3 °C 11.8 °C 1010.4 hPa WSW 17.7 km/h 38.6 km/h 62 % 0 mm 891 W/m2
11:52 19.8 °C 11.3 °C 1010.4 hPa WSW 17.7 km/h 38.6 km/h 58 % 0 mm 900 W/m2
11:57 20 °C 10.9 °C 1010 hPa WSW 22.5 km/h 43.5 km/h 56 % 0 mm 902 W/m2
12:02 20.4 °C 10.8 °C 1010 hPa WSW 27.4 km/h 45.1 km/h 54 % 0 mm 909 W/m2
12:07 20.7 °C 10.8 °C 1010 hPa West 27.4 km/h 45.1 km/h 53 % 0 mm 1011 W/m2
12:12 20.4 °C 9.9 °C 1010 hPa West 27.4 km/h 46.7 km/h 51 % 0 mm 213 W/m2
12:17 20.2 °C 10.3 °C 1010 hPa West 24.1 km/h 46.7 km/h 53 % 0 mm 1014 W/m2
12:22 20.4 °C 9.9 °C 1010 hPa West 24.1 km/h 41.8 km/h 51 % 0 mm 998 W/m2
12:27 20.7 °C 9.9 °C 1010.4 hPa West 25.7 km/h 46.7 km/h 50 % 0 mm 1007 W/m2
12:32 20.8 °C 10.6 °C 1010.4 hPa West 20.9 km/h 46.7 km/h 52 % 0 mm 944 W/m2
12:37 21.1 °C 10.6 °C 1010.4 hPa West 16.1 km/h 32.2 km/h 51 % 0 mm 1095 W/m2
12:42 21.2 °C 11.2 °C 1010.7 hPa West 19.3 km/h 33.8 km/h 53 % 0 mm 281 W/m2
12:47 21.1 °C 11.2 °C 1010.7 hPa West 20.9 km/h 38.6 km/h 53 % 0 mm 230 W/m2
12:52 20.7 °C 10.8 °C 1010.7 hPa West 22.5 km/h 38.6 km/h 53 % 0 mm 1032 W/m2
12:57 20.5 °C 10.3 °C 1010.7 hPa West 22.5 km/h 38.6 km/h 52 % 0 mm 1032 W/m2
13:02 20.3 °C 9.8 °C 1010.7 hPa West 22.5 km/h 38.6 km/h 51 % 0 mm 229 W/m2
13:07 20.3 °C 10.1 °C 1010.7 hPa West 22.5 km/h 38.6 km/h 52 % 0 mm 993 W/m2
13:12 20.3 °C 10.1 °C 1010.7 hPa West 22.5 km/h 38.6 km/h 52 % 0 mm 991 W/m2
13:17 20.4 °C 9.9 °C 1010.7 hPa WSW 22.5 km/h 35.4 km/h 51 % 0 mm 1063 W/m2
13:22 20.4 °C 9.6 °C 1010.7 hPa West 22.5 km/h 41.8 km/h 50 % 0 mm 362 W/m2
13:27 20.1 °C 9.7 °C 1010.7 hPa West 22.5 km/h 41.8 km/h 51 % 0 mm 287 W/m2
13:32 20 °C 9.8 °C 1010.7 hPa West 19.3 km/h 37 km/h 52 % 0 mm 413 W/m2
13:37 20 °C 10.1 °C 1011.1 hPa West 19.3 km/h 37 km/h 53 % 0 mm 1060 W/m2
13:42 20.1 °C 9.9 °C 1011.1 hPa West 20.9 km/h 37 km/h 52 % 0 mm 285 W/m2
13:47 19.9 °C 9.7 °C 1010.7 hPa West 19.3 km/h 32.2 km/h 52 % 0 mm 250 W/m2
13:52 19.6 °C 9.4 °C 1010.7 hPa West 20.9 km/h 37 km/h 52 % 0 mm 278 W/m2
13:58 19.5 °C 9.7 °C 1010.7 hPa WSW 20.9 km/h 37 km/h 53 % 0 mm 990 W/m2
14:03 20 °C 9.8 °C 1010.7 hPa West 19.3 km/h 35.4 km/h 52 % 0 mm 979 W/m2
14:08 20.2 °C 10.3 °C 1010.7 hPa West 17.7 km/h 35.4 km/h 53 % 0 mm 1016 W/m2
14:13 20.3 °C 10.7 °C 1010.7 hPa West 16.1 km/h 30.6 km/h 54 % 0 mm 1157 W/m2
14:18 20.6 °C 10.7 °C 1010.7 hPa West 16.1 km/h 32.2 km/h 53 % 0 mm 269 W/m2
14:23 20.3 °C 10.7 °C 1010.7 hPa West 17.7 km/h 32.2 km/h 54 % 0 mm 281 W/m2
14:28 20.2 °C 10.6 °C 1010.7 hPa West 16.1 km/h 29 km/h 54 % 0 mm 1071 W/m2
14:33 20.2 °C 10.3 °C 1010.7 hPa West 16.1 km/h 32.2 km/h 53 % 0 mm 265 W/m2
14:38 20 °C 10.4 °C 1010.7 hPa West 16.1 km/h 32.2 km/h 54 % 0 mm 1027 W/m2
14:43 20.4 °C 10.5 °C 1010.7 hPa WSW 17.7 km/h 33.8 km/h 53 % 0 mm 269 W/m2
14:48 20.5 °C 10.3 °C 1011.1 hPa West 19.3 km/h 33.8 km/h 52 % 0 mm 336 W/m2
14:53 20.6 °C 10.7 °C 1010.7 hPa West 22.5 km/h 35.4 km/h 53 % 0 mm 1062 W/m2
14:58 20.7 °C 10.5 °C 1011.1 hPa West 24.1 km/h 40.2 km/h 52 % 0 mm 369 W/m2
15:04 20.3 °C 10.7 °C 1011.1 hPa West 24.1 km/h 40.2 km/h 54 % 0 mm 997 W/m2
15:09 20.5 °C 10.6 °C 1011.1 hPa West 22.5 km/h 45.1 km/h 53 % 0 mm 311 W/m2
15:14 20.6 °C 10.9 °C 1011.1 hPa West 20.9 km/h 45.1 km/h 54 % 0 mm 939 W/m2
15:19 20.6 °C 10.7 °C 1011.1 hPa West 19.3 km/h 35.4 km/h 53 % 0 mm 951 W/m2
15:24 20.6 °C 10.9 °C 1011.1 hPa West 19.3 km/h 33.8 km/h 54 % 0 mm 276 W/m2
15:29 20.3 °C 10.4 °C 1011.1 hPa West 19.3 km/h 35.4 km/h 53 % 0 mm 248 W/m2
15:34 19.9 °C 10.3 °C 1011.1 hPa West 19.3 km/h 35.4 km/h 54 % 0 mm 334 W/m2
15:39 19.7 °C 10.7 °C 1011.1 hPa West 16.1 km/h 30.6 km/h 56 % 0 mm 410 W/m2
15:44 19.8 °C 11.1 °C 1011.1 hPa West 14.5 km/h 29 km/h 57 % 0 mm 274 W/m2
15:49 19.8 °C 10.8 °C 1011.1 hPa West 16.1 km/h 29 km/h 56 % 0 mm 200 W/m2
15:54 19.7 °C 10.7 °C 1011.1 hPa West 16.1 km/h 30.6 km/h 56 % 0 mm 944 W/m2
15:59 19.9 °C 10.8 °C 1011.1 hPa West 14.5 km/h 30.6 km/h 56 % 0 mm 835 W/m2
16:01 20.1 °C 10.8 °C 1011.1 hPa West 16.1 km/h 30.6 km/h 55 % 0 mm 816 W/m2
16:06 20.3 °C 10.7 °C 1011.1 hPa WSW 17.7 km/h 30.6 km/h 54 % 0 mm 397 W/m2
16:11 20.5 °C 10 °C 1011.1 hPa West 19.3 km/h 33.8 km/h 51 % 0 mm 976 W/m2
16:16 20.7 °C 10.2 °C 1011.1 hPa West 22.5 km/h 35.4 km/h 51 % 0 mm 225 W/m2
16:21 20.3 °C 9.8 °C 1011.1 hPa West 19.3 km/h 37 km/h 51 % 0 mm 207 W/m2
16:26 20 °C 10.4 °C 1011.1 hPa West 19.3 km/h 37 km/h 54 % 0 mm 626 W/m2
16:31 19.9 °C 10.6 °C 1011.1 hPa West 20.9 km/h 37 km/h 55 % 0 mm 223 W/m2
16:36 19.7 °C 10.4 °C 1011.1 hPa West 19.3 km/h 33.8 km/h 55 % 0 mm 262 W/m2
16:41 19.6 °C 10.8 °C 1011.1 hPa West 17.7 km/h 30.6 km/h 57 % 0 mm 294 W/m2
16:46 19.7 °C 10.7 °C 1011.1 hPa West 16.1 km/h 30.6 km/h 56 % 0 mm 657 W/m2
16:51 19.9 °C 10.8 °C 1011.1 hPa West 17.7 km/h 32.2 km/h 56 % 0 mm 642 W/m2
16:56 20.2 °C 10.9 °C 1011.1 hPa West 19.3 km/h 33.8 km/h 55 % 0 mm 582 W/m2
17:01 20.1 °C 10.5 °C 1011.1 hPa West 24.1 km/h 41.8 km/h 54 % 0 mm 619 W/m2
17:06 20.1 °C 10.5 °C 1011.1 hPa West 22.5 km/h 41.8 km/h 54 % 0 mm 185 W/m2
17:11 19.8 °C 10.2 °C 1011.1 hPa West 19.3 km/h 32.2 km/h 54 % 0 mm 179 W/m2
17:16 19.6 °C 10.6 °C 1011.4 hPa West 17.7 km/h 30.6 km/h 56 % 0 mm 121 W/m2
17:21 19.3 °C 10.6 °C 1011.4 hPa West 17.7 km/h 30.6 km/h 57 % 0 mm 195 W/m2
17:26 19.1 °C 9.6 °C 1011.4 hPa West 17.7 km/h 33.8 km/h 54 % 0 mm 148 W/m2
17:31 18.9 °C 9.7 °C 1011.4 hPa West 17.7 km/h 33.8 km/h 55 % 0 mm 98 W/m2
17:36 18.9 °C 9.9 °C 1011.4 hPa West 16.1 km/h 33.8 km/h 56 % 0 mm 79 W/m2
17:41 18.8 °C 9.6 °C 1011.7 hPa West 16.1 km/h 30.6 km/h 55 % 0 mm 109 W/m2
17:46 18.5 °C 9.3 °C 1011.7 hPa West 19.3 km/h 33.8 km/h 55 % 0 mm 118 W/m2
17:51 18.4 °C 9.4 °C 1011.7 hPa WSW 17.7 km/h 33.8 km/h 56 % 0 mm 95 W/m2
17:52 18.4 °C 9.4 °C 1011.7 hPa WSW 17.7 km/h 33.8 km/h 56 % 0 mm 91 W/m2
17:57 18.3 °C 9.4 °C 1011.7 hPa WSW 16.1 km/h 35.4 km/h 56 % 0 mm 91 W/m2
18:02 18.2 °C 9.3 °C 1011.7 hPa West 19.3 km/h 35.4 km/h 56 % 0 mm 63 W/m2
18:07 18.1 °C 9.4 °C 1012.1 hPa West 19.3 km/h 35.4 km/h 57 % 0 mm 40 W/m2
18:12 18 °C 9.3 °C 1012.1 hPa West 17.7 km/h 33.8 km/h 57 % 0 mm 44 W/m2
18:17 17.8 °C 9.7 °C 1012.4 hPa West 17.7 km/h 33.8 km/h 59 % 0 mm 83 W/m2
18:22 17.6 °C 10 °C 1012.4 hPa West 19.3 km/h 33.8 km/h 61 % 0 mm 84 W/m2
18:27 17.4 °C 10.1 °C 1012.4 hPa West 17.7 km/h 32.2 km/h 62 % 0 mm 91 W/m2
18:32 17.3 °C 10.2 °C 1012.4 hPa West 17.7 km/h 30.6 km/h 63 % 0 mm 60 W/m2
18:37 17.2 °C 10.3 °C 1012.4 hPa WSW 16.1 km/h 30.6 km/h 64 % 0 mm 54 W/m2
18:42 17.1 °C 10.7 °C 1012.4 hPa West 14.5 km/h 29 km/h 66 % 0 mm 58 W/m2
18:47 17 °C 10.8 °C 1012.4 hPa West 14.5 km/h 30.6 km/h 67 % 0 mm 51 W/m2
18:52 16.8 °C 10.6 °C 1012.4 hPa West 16.1 km/h 30.6 km/h 67 % 0 mm 28 W/m2
18:57 16.7 °C 11.2 °C 1012.4 hPa West 14.5 km/h 25.7 km/h 70 % 0 mm 58 W/m2
19:02 16.5 °C 11.2 °C 1012.4 hPa West 12.9 km/h 22.5 km/h 71 % 0 mm 86 W/m2
19:07 16.4 °C 11.3 °C 1012.4 hPa West 11.3 km/h 19.3 km/h 72 % 0 mm 91 W/m2
19:12 16.3 °C 11.2 °C 1012.4 hPa West 9.7 km/h 17.7 km/h 72 % 0 mm 74 W/m2
19:17 16.3 °C 11.1 °C 1012.8 hPa West 11.3 km/h 19.3 km/h 71 % 0 mm 58 W/m2
19:22 16.3 °C 11.2 °C 1012.8 hPa West 11.3 km/h 19.3 km/h 72 % 0 mm 39 W/m2
19:27 16.4 °C 10.9 °C 1012.8 hPa WSW 11.3 km/h 20.9 km/h 70 % 0 mm 35 W/m2
19:32 16.4 °C 10.7 °C 1012.8 hPa WSW 17.7 km/h 37 km/h 69 % 0 mm 46 W/m2
19:37 16.5 °C 10.6 °C 1013.1 hPa West 19.3 km/h 37 km/h 68 % 0 mm 54 W/m2
19:42 16.6 °C 10.7 °C 1013.1 hPa West 16.1 km/h 32.2 km/h 68 % 0 mm 58 W/m2
19:47 16.6 °C 10.4 °C 1013.1 hPa WSW 14.5 km/h 30.6 km/h 67 % 0 mm 42 W/m2
19:52 16.6 °C 10.4 °C 1013.1 hPa WSW 14.5 km/h 30.6 km/h 67 % 0 mm 30 W/m2
19:58 16.6 °C 10.7 °C 1013.1 hPa West 12.9 km/h 25.7 km/h 68 % 0 mm 25 W/m2
20:03 16.5 °C 10.3 °C 1013.1 hPa WSW 14.5 km/h 29 km/h 67 % 0 mm 26 W/m2
20:08 16.5 °C 10.3 °C 1013.1 hPa WSW 16.1 km/h 30.6 km/h 67 % 0 mm 28 W/m2
20:13 16.4 °C 10.3 °C 1013.1 hPa WSW 14.5 km/h 30.6 km/h 67 % 0 mm 14 W/m2
20:18 16.4 °C 10.3 °C 1013.1 hPa WSW 12.9 km/h 20.9 km/h 67 % 0 mm 11 W/m2
20:23 16.4 °C 10.3 °C 1013.4 hPa WSW 12.9 km/h 25.7 km/h 67 % 0 mm 5 W/m2
20:28 16.3 °C 10.4 °C 1013.4 hPa WSW 16.1 km/h 29 km/h 68 % 0 mm 5 W/m2
20:33 16.2 °C 10.7 °C 1013.4 hPa WSW 17.7 km/h 29 km/h 70 % 0 mm 11 W/m2
20:38 15.9 °C 10.4 °C 1013.8 hPa WSW 17.7 km/h 32.2 km/h 70 % 0 mm 19 W/m2
20:43 15.8 °C 10.6 °C 1013.8 hPa West 16.1 km/h 32.2 km/h 71 % 0 mm 19 W/m2
20:48 15.7 °C 10.4 °C 1013.8 hPa West 17.7 km/h 29 km/h 71 % 0 mm 18 W/m2
20:53 15.7 °C 10.7 °C 1013.8 hPa West 17.7 km/h 29 km/h 72 % 0 mm 14 W/m2
20:58 15.7 °C 10.7 °C 1013.8 hPa West 16.1 km/h 30.6 km/h 72 % 0 mm 12 W/m2
21:03 15.6 °C 10.6 °C 1013.8 hPa West 16.1 km/h 30.6 km/h 72 % 0 mm 16 W/m2
21:08 15.6 °C 10.6 °C 1013.8 hPa West 16.1 km/h 29 km/h 72 % 0 mm 9 W/m2
21:13 15.6 °C 10.6 °C 1013.8 hPa West 16.1 km/h 29 km/h 72 % 0 mm 5 W/m2
21:18 15.5 °C 10.7 °C 1014.1 hPa West 16.1 km/h 24.1 km/h 73 % 0 mm 0 W/m2
21:23 15.4 °C 10.6 °C 1014.1 hPa West 12.9 km/h 24.1 km/h 73 % 0 mm 0 W/m2
21:28 15.4 °C 10.8 °C 1014.1 hPa West 11.3 km/h 24.1 km/h 74 % 0 mm 5 W/m2
21:33 15.4 °C 10.8 °C 1014.1 hPa West 11.3 km/h 19.3 km/h 74 % 0 mm 0 W/m2
21:38 15.4 °C 10.8 °C 1014.1 hPa West 11.3 km/h 19.3 km/h 74 % 0 mm 0 W/m2
21:43 15.4 °C 10.8 °C 1014.4 hPa West 9.7 km/h 19.3 km/h 74 % 0 mm 0 W/m2
21:48 15.3 °C 10.5 °C 1014.4 hPa West 11.3 km/h 24.1 km/h 73 % 0 mm 0 W/m2
21:53 15.3 °C 10.5 °C 1014.4 hPa West 12.9 km/h 24.1 km/h 73 % 0 mm 0 W/m2
21:58 15.2 °C 10.4 °C 1014.4 hPa West 11.3 km/h 20.9 km/h 73 % 0 mm 0 W/m2
22:03 15.2 °C 10.6 °C 1014.4 hPa West 9.7 km/h 19.3 km/h 74 % 0 mm 0 W/m2
22:08 15.1 °C 10.5 °C 1014.4 hPa West 12.9 km/h 30.6 km/h 74 % 0 mm 0 W/m2
22:13 15 °C 10.4 °C 1014.8 hPa West 14.5 km/h 30.6 km/h 74 % 0 mm 0 W/m2
22:18 14.9 °C 10.3 °C 1014.8 hPa West 16.1 km/h 29 km/h 74 % 0 mm 0 W/m2
22:23 14.9 °C 10.3 °C 1014.8 hPa West 14.5 km/h 25.7 km/h 74 % 0 mm 0 W/m2
22:28 14.9 °C 10.3 °C 1014.8 hPa West 14.5 km/h 25.7 km/h 74 % 0 mm 0 W/m2
22:33 15 °C 10.4 °C 1014.8 hPa West 16.1 km/h 35.4 km/h 74 % 0 mm 0 W/m2
22:38 15 °C 10.4 °C 1014.8 hPa West 17.7 km/h 35.4 km/h 74 % 0 mm 0 W/m2
22:43 14.9 °C 10.3 °C 1015.1 hPa West 16.1 km/h 37 km/h 74 % 0 mm 0 W/m2
22:48 14.9 °C 10.3 °C 1014.8 hPa West 16.1 km/h 37 km/h 74 % 0 mm 0 W/m2
22:53 14.9 °C 10.1 °C 1015.1 hPa WNW 17.7 km/h 38.6 km/h 73 % 0 mm 0 W/m2
22:58 14.9 °C 10.1 °C 1015.1 hPa West 19.3 km/h 38.6 km/h 73 % 0 mm 0 W/m2
23:03 14.8 °C 10 °C 1014.8 hPa West 16.1 km/h 32.2 km/h 73 % 0 mm 0 W/m2
23:08 14.8 °C 10.2 °C 1015.1 hPa West 16.1 km/h 32.2 km/h 74 % 0 mm 0 W/m2
23:13 14.7 °C 10.1 °C 1014.8 hPa West 16.1 km/h 29 km/h 74 % 0 mm 0 W/m2
23:18 14.7 °C 10.3 °C 1015.1 hPa West 14.5 km/h 29 km/h 75 % 0 mm 0 W/m2
23:24 14.7 °C 10.3 °C 1015.1 hPa West 16.1 km/h 32.2 km/h 75 % 0 mm 0 W/m2
23:29 14.7 °C 10.3 °C 1015.1 hPa West 14.5 km/h 32.2 km/h 75 % 0 mm 0 W/m2
23:34 14.7 °C 10.3 °C 1015.1 hPa West 12.9 km/h 20.9 km/h 75 % 0 mm 0 W/m2
23:39 14.6 °C 10.4 °C 1015.1 hPa West 12.9 km/h 19.3 km/h 76 % 0 mm 0 W/m2
23:44 14.6 °C 10.4 °C 1015.1 hPa West 12.9 km/h 24.1 km/h 76 % 0 mm 0 W/m2
23:49 14.6 °C 10.6 °C 1015.1 hPa West 14.5 km/h 29 km/h 77 % 0 mm 0 W/m2
23:54 14.5 °C 10.5 °C 1015.1 hPa West 16.1 km/h 30.6 km/h 77 % 0 mm 0 W/m2
23:59 14.5 °C 10.5 °C 1015.1 hPa West 17.7 km/h 30.6 km/h 77 % 0 mm 0 W/m2
Delerius-Weather
Compliments of Weather Underground - 2.25 mb

Data updates at regular intervals.